Time;durP1;ratioP1;P1;durP2;ratioP2;P2;SDS_P1;SDS_P2;PMS_P1;PMS_P2;Temp;Humidity;BMP_temperature;BMP_pressure;BME280_temperature;BME280_humidity;BME280_pressure;Samples;Min_cycle;Max_cycle;Signal;HPM_P1;HPM_P2
2022/03/02 00:00:24;;;;;;;;;;;13.80;53.30;;;;;;5075374;28;19925;-67
2022/03/02 00:02:51;;;;;;;;;;;13.80;53.30;;;;;;5075098;28;19932;-70
2022/03/02 00:05:18;;;;;;;;;;;13.80;53.30;;;;;;5075114;28;19924;-70
2022/03/02 00:07:45;;;;;;;;;;;13.80;53.30;;;;;;5075715;28;19931;-69
2022/03/02 00:10:12;;;;;;;;;;;13.80;53.30;;;;;;5074964;28;20357;-70
2022/03/02 00:12:38;;;;;;;;;;;13.70;53.30;;;;;;5074787;28;19924;-70
2022/03/02 00:15:05;;;;;;;;;;;13.80;53.20;;;;;;5074675;28;19924;-69
2022/03/02 00:17:32;;;;;;;;;;;13.80;53.30;;;;;;5074622;28;19925;-69
2022/03/02 00:19:58;;;;;;;;;;;13.80;53.30;;;;;;5074967;28;19971;-69
2022/03/02 00:22:26;;;;;;;;;;;13.80;53.30;;;;;;5090740;28;19924;-69
2022/03/02 00:24:53;;;;;;;;;;;13.90;53.70;;;;;;5091583;28;19935;-69
2022/03/02 00:27:20;;;;;;;;;;;13.70;53.20;;;;;;5074383;28;19924;-69
2022/03/02 00:29:46;;;;;;;;;;;13.70;53.10;;;;;;5074666;28;19924;-69
2022/03/02 00:32:13;;;;;;;;;;;14.00;53.30;;;;;;5057057;28;20339;-69
2022/03/02 00:34:40;;;;;;;;;;;13.70;53.20;;;;;;5056923;28;19931;-69
2022/03/02 00:37:07;;;;;;;;;;;13.70;53.10;;;;;;5074264;28;19931;-69
2022/03/02 00:39:35;;;;;;;;;;;13.70;53.20;;;;;;5074772;28;19929;-69
2022/03/02 00:42:01;;;;;;;;;;;13.70;53.20;;;;;;5057744;28;19925;-68
2022/03/02 00:44:28;;;;;;;;;;;13.70;53.20;;;;;;5074484;28;20299;-69
2022/03/02 00:46:55;;;;;;;;;;;13.70;53.20;;;;;;5073062;28;19935;-69
2022/03/02 00:49:26;;;;;;;;;;;13.60;53.10;;;;;;5074204;28;19935;-69
2022/03/02 00:51:53;;;;;;;;;;;13.60;53.20;;;;;;5056609;28;19931;-69
2022/03/02 00:54:20;;;;;;;;;;;13.60;53.20;;;;;;5074309;28;19931;-69
2022/03/02 00:56:48;;;;;;;;;;;13.60;53.30;;;;;;5090963;28;19931;-69
2022/03/02 00:59:14;;;;;;;;;;;13.60;53.30;;;;;;5074158;28;20006;-69
2022/03/02 01:01:41;;;;;;;;;;;14.20;53.60;;;;;;5089672;28;20352;-69
2022/03/02 01:04:08;;;;;;;;;;;13.60;53.30;;;;;;5073786;28;19931;-69
2022/03/02 01:06:34;;;;;;;;;;;13.50;53.30;;;;;;5073621;28;20449;-69
2022/03/02 01:09:01;;;;;;;;;;;13.50;53.30;;;;;;5073961;28;20420;-69
2022/03/02 01:11:27;;;;;;;;;;;13.70;53.40;;;;;;5089824;28;20300;-69
2022/03/02 01:13:55;;;;;;;;;;;13.60;53.30;;;;;;5075060;28;20304;-69
2022/03/02 01:16:22;;;;;;;;;;;13.50;53.30;;;;;;5073537;28;19950;-69
2022/03/02 01:18:48;;;;;;;;;;;13.50;53.30;;;;;;5073446;28;19924;-69
2022/03/02 01:21:15;;;;;;;;;;;13.50;53.30;;;;;;5073978;28;19931;-69
2022/03/02 01:23:41;;;;;;;;;;;13.50;53.30;;;;;;5073476;28;19931;-69
2022/03/02 01:26:08;;;;;;;;;;;13.50;53.40;;;;;;5072629;28;19931;-69
2022/03/02 01:28:34;;;;;;;;;;;13.60;53.40;;;;;;5073370;28;19924;-69
2022/03/02 01:31:02;;;;;;;;;;;13.50;53.40;;;;;;5074925;28;19925;-69
2022/03/02 01:33:29;;;;;;;;;;;13.50;53.30;;;;;;5073468;28;20015;-69
2022/03/02 01:35:56;;;;;;;;;;;13.40;53.30;;;;;;5073357;28;19924;-69
2022/03/02 01:38:23;;;;;;;;;;;13.90;53.60;;;;;;5073373;28;19924;-68
2022/03/02 01:40:49;;;;;;;;;;;13.50;53.30;;;;;;5073373;28;19924;-69
2022/03/02 01:43:16;;;;;;;;;;;13.90;53.60;;;;;;5073114;28;19925;-70
2022/03/02 01:45:42;;;;;;;;;;;13.50;53.40;;;;;;5072984;28;19931;-69
2022/03/02 01:48:10;;;;;;;;;;;13.50;53.40;;;;;;5074200;28;19936;-69
2022/03/02 01:50:37;;;;;;;;;;;13.50;53.30;;;;;;5073174;28;19924;-69
2022/03/02 01:53:03;;;;;;;;;;;13.50;53.40;;;;;;5073039;28;19924;-68
2022/03/02 01:55:30;;;;;;;;;;;13.50;53.40;;;;;;5072609;28;20035;-69
2022/03/02 01:57:56;;;;;;;;;;;13.50;53.40;;;;;;5073192;28;20288;-69
2022/03/02 02:00:23;;;;;;;;;;;13.50;53.30;;;;;;5088903;28;20391;-69
2022/03/02 02:02:50;;;;;;;;;;;13.50;53.30;;;;;;5088621;28;19940;-69
2022/03/02 02:05:18;;;;;;;;;;;13.50;53.30;;;;;;5089545;28;19931;-69
2022/03/02 02:07:45;;;;;;;;;;;13.80;53.40;;;;;;5072378;28;19968;-69
2022/03/02 02:10:11;;;;;;;;;;;13.50;53.30;;;;;;5072791;28;20347;-69
2022/03/02 02:12:38;;;;;;;;;;;13.50;53.30;;;;;;5072739;28;20017;-69
2022/03/02 02:15:06;;;;;;;;;;;13.60;53.40;;;;;;5071675;28;21312;-69
2022/03/02 02:17:33;;;;;;;;;;;13.60;53.30;;;;;;5072619;28;19925;-69
2022/03/02 02:19:59;;;;;;;;;;;13.60;53.30;;;;;;5074093;28;19954;-69
2022/03/02 02:22:27;;;;;;;;;;;13.60;53.40;;;;;;5108523;28;19924;-69
2022/03/02 02:24:54;;;;;;;;;;;13.60;53.40;;;;;;5074421;28;19942;-69
2022/03/02 02:27:20;;;;;;;;;;;13.60;53.40;;;;;;5108430;28;19931;-68
2022/03/02 02:29:47;;;;;;;;;;;13.60;53.40;;;;;;5093014;28;19931;-69
2022/03/02 02:32:14;;;;;;;;;;;13.60;53.40;;;;;;5092994;28;19932;-69
2022/03/02 02:34:41;;;;;;;;;;;13.70;53.40;;;;;;5092653;28;19924;-69
2022/03/02 02:37:07;;;;;;;;;;;13.90;53.60;;;;;;5072857;28;19930;-69
2022/03/02 02:39:36;;;;;;;;;;;13.60;53.40;;;;;;5092448;28;19931;-69
2022/03/02 02:42:04;;;;;;;;;;;13.60;53.40;;;;;;5092428;28;19938;-69
2022/03/02 02:44:30;;;;;;;;;;;13.70;53.50;;;;;;5092472;28;20030;-69
2022/03/02 02:46:57;;;;;;;;;;;13.60;53.40;;;;;;5090552;28;20009;-69
2022/03/02 02:49:24;;;;;;;;;;;13.60;53.50;;;;;;5092610;28;19931;-69
2022/03/02 02:51:51;;;;;;;;;;;13.70;53.60;;;;;;5108250;28;19924;-69
2022/03/02 02:54:17;;;;;;;;;;;13.70;53.60;;;;;;5106837;28;19924;-69
2022/03/02 02:56:45;;;;;;;;;;;13.60;53.60;;;;;;5074169;28;19938;-69
2022/03/02 02:59:12;;;;;;;;;;;13.70;53.60;;;;;;5092372;28;20403;-69
2022/03/02 03:01:38;;;;;;;;;;;14.30;53.90;;;;;;5092213;28;19931;-69
2022/03/02 03:04:06;;;;;;;;;;;13.60;53.50;;;;;;5074069;28;19930;-69
2022/03/02 03:06:33;;;;;;;;;;;13.70;53.60;;;;;;5091884;28;19924;-69
2022/03/02 03:08:59;;;;;;;;;;;13.70;53.60;;;;;;5107935;28;19924;-69
2022/03/02 03:11:26;;;;;;;;;;;13.70;53.60;;;;;;5090507;28;19930;-69
2022/03/02 03:13:54;;;;;;;;;;;13.70;53.60;;;;;;5091952;28;19931;-69
2022/03/02 03:16:20;;;;;;;;;;;13.70;53.60;;;;;;5091988;28;19924;-69
2022/03/02 03:18:47;;;;;;;;;;;13.60;53.50;;;;;;5092180;28;20395;-69
2022/03/02 03:21:13;;;;;;;;;;;13.70;54.20;;;;;;5092228;28;20298;-69
2022/03/02 03:23:40;;;;;;;;;;;13.70;53.60;;;;;;5092093;28;20542;-69
2022/03/02 03:26:06;;;;;;;;;;;13.70;53.60;;;;;;5090526;28;20269;-69
2022/03/02 03:28:33;;;;;;;;;;;13.70;53.60;;;;;;5092165;28;19924;-69
2022/03/02 03:31:01;;;;;;;;;;;13.70;53.60;;;;;;5092275;28;19924;-69
2022/03/02 03:33:28;;;;;;;;;;;13.70;53.60;;;;;;5107856;28;19928;-69
2022/03/02 03:35:55;;;;;;;;;;;13.70;53.60;;;;;;5091791;28;19924;-69
2022/03/02 03:38:21;;;;;;;;;;;13.70;53.60;;;;;;5091986;28;19924;-69
2022/03/02 03:40:48;;;;;;;;;;;13.70;53.60;;;;;;5091695;28;19924;-69
2022/03/02 03:43:15;;;;;;;;;;;13.70;53.60;;;;;;5090064;28;19932;-69
2022/03/02 03:45:41;;;;;;;;;;;13.70;53.60;;;;;;5107380;28;20407;-69
2022/03/02 03:48:10;;;;;;;;;;;13.70;53.60;;;;;;5093040;28;20382;-69
2022/03/02 03:50:36;;;;;;;;;;;13.70;53.50;;;;;;5095796;28;20292;-69
2022/03/02 03:53:03;;;;;;;;;;;13.70;53.60;;;;;;5095622;28;19932;-69
2022/03/02 03:55:30;;;;;;;;;;;13.70;53.60;;;;;;5091536;28;19925;-69
2022/03/02 03:57:56;;;;;;;;;;;13.70;53.60;;;;;;5075511;28;19925;-69
2022/03/02 04:00:23;;;;;;;;;;;16.20;55.00;;;;;;5090947;28;19944;-69
2022/03/02 04:02:50;;;;;;;;;;;13.90;53.60;;;;;;5091184;28;19924;-69
2022/03/02 04:05:18;;;;;;;;;;;13.70;53.60;;;;;;5075137;28;19924;-69
2022/03/02 04:07:45;;;;;;;;;;;13.70;53.50;;;;;;5094794;28;20019;-69
2022/03/02 04:10:13;;;;;;;;;;;13.20;53.30;;;;;;5095053;28;19924;-69
2022/03/02 04:12:40;;;;;;;;;;;13.70;53.60;;;;;;5095325;28;19924;-70
2022/03/02 04:15:06;;;;;;;;;;;13.70;53.60;;;;;;5095166;28;20006;-69
2022/03/02 04:17:33;;;;;;;;;;;13.70;53.60;;;;;;5094951;28;19928;-69
2022/03/02 04:20:00;;;;;;;;;;;13.70;53.50;;;;;;5095026;28;19924;-70
2022/03/02 04:22:27;;;;;;;;;;;13.70;53.50;;;;;;5094992;28;20444;-69
2022/03/02 04:24:54;;;;;;;;;;;13.70;53.50;;;;;;5086746;28;20300;-69
2022/03/02 04:27:21;;;;;;;;;;;13.70;53.50;;;;;;5074795;28;20003;-69
2022/03/02 04:29:47;;;;;;;;;;;13.70;53.50;;;;;;5074770;28;19924;-69
2022/03/02 04:32:14;;;;;;;;;;;13.70;53.60;;;;;;5090525;28;19967;-69
2022/03/02 04:34:40;;;;;;;;;;;13.70;53.50;;;;;;5074541;28;20016;-69
2022/03/02 04:37:07;;;;;;;;;;;14.10;53.70;;;;;;5090105;28;19931;-69
2022/03/02 04:39:35;;;;;;;;;;;13.70;53.40;;;;;;5090393;28;19935;-69
2022/03/02 04:42:02;;;;;;;;;;;13.70;53.50;;;;;;5088666;28;20003;-69
2022/03/02 04:44:28;;;;;;;;;;;13.70;53.50;;;;;;5076746;28;19931;-69
2022/03/02 04:46:55;;;;;;;;;;;13.70;53.50;;;;;;5094205;28;19931;-68
2022/03/02 04:49:21;;;;;;;;;;;13.70;53.50;;;;;;5094849;28;20280;-69
2022/03/02 04:51:48;;;;;;;;;;;13.80;53.50;;;;;;5094617;28;20307;-69
2022/03/02 04:56:57;;;;;;;;;;;13.70;53.50;;;;;;5108945;28;20331;-69
2022/03/02 04:59:24;;;;;;;;;;;13.70;53.50;;;;;;5091815;28;19925;-69
2022/03/02 05:01:50;;;;;;;;;;;13.70;53.50;;;;;;5094279;28;19928;-69
2022/03/02 05:04:17;;;;;;;;;;;13.70;53.40;;;;;;5094273;28;19938;-69
2022/03/02 05:06:44;;;;;;;;;;;13.90;53.50;;;;;;5093897;28;20014;-69
2022/03/02 05:09:10;;;;;;;;;;;13.70;53.40;;;;;;5094179;28;19931;-69
2022/03/02 05:11:37;;;;;;;;;;;13.70;53.50;;;;;;5094141;28;19932;-69
2022/03/02 05:14:05;;;;;;;;;;;13.70;53.50;;;;;;5088438;28;19928;-70
2022/03/02 05:16:31;;;;;;;;;;;13.70;53.50;;;;;;5073281;28;20400;-70
2022/03/02 05:18:58;;;;;;;;;;;13.70;53.40;;;;;;5073866;28;19966;-70
2022/03/02 05:21:25;;;;;;;;;;;13.80;53.50;;;;;;5073869;28;20007;-70
2022/03/02 05:23:51;;;;;;;;;;;13.70;53.50;;;;;;5074033;28;20292;-70
2022/03/02 05:26:18;;;;;;;;;;;13.70;53.50;;;;;;5073319;28;20292;-70
2022/03/02 05:28:45;;;;;;;;;;;13.70;53.40;;;;;;5089361;28;19951;-70
2022/03/02 05:31:12;;;;;;;;;;;13.70;53.40;;;;;;5084005;28;19927;-70
2022/03/02 05:33:39;;;;;;;;;;;13.70;53.50;;;;;;5093840;28;20014;-70
2022/03/02 05:36:06;;;;;;;;;;;14.10;53.60;;;;;;5093351;28;19924;-69
2022/03/02 05:38:32;;;;;;;;;;;13.60;53.40;;;;;;5075776;28;19924;-70
2022/03/02 05:40:59;;;;;;;;;;;13.70;53.40;;;;;;5093451;28;19932;-70
2022/03/02 05:43:25;;;;;;;;;;;13.60;53.40;;;;;;5109484;28;19924;-70
2022/03/02 05:45:52;;;;;;;;;;;13.70;53.50;;;;;;5108971;28;19930;-70
2022/03/02 05:48:20;;;;;;;;;;;14.30;53.80;;;;;;5107803;28;19924;-71
2022/03/02 05:50:47;;;;;;;;;;;13.70;53.40;;;;;;5109385;28;19934;-70
2022/03/02 05:53:13;;;;;;;;;;;13.70;53.40;;;;;;5109091;28;20369;-70
2022/03/02 05:55:40;;;;;;;;;;;13.70;53.40;;;;;;5074692;28;19939;-69
2022/03/02 05:58:07;;;;;;;;;;;13.70;53.50;;;;;;5093040;28;20035;-70
2022/03/02 06:00:33;;;;;;;;;;;13.70;53.50;;;;;;5109080;28;19928;-70
2022/03/02 06:03:00;;;;;;;;;;;13.70;53.40;;;;;;5092056;28;19924;-70
2022/03/02 06:05:28;;;;;;;;;;;13.70;53.40;;;;;;5092686;28;19928;-70
2022/03/02 06:07:54;;;;;;;;;;;13.70;53.40;;;;;;5092686;28;19931;-70
2022/03/02 06:10:21;;;;;;;;;;;14.10;53.70;;;;;;5080180;28;19924;-70
2022/03/02 06:12:48;;;;;;;;;;;13.70;53.50;;;;;;5055081;28;19925;-70
2022/03/02 06:15:15;;;;;;;;;;;13.70;53.50;;;;;;5054842;28;19932;-70
2022/03/02 06:17:42;;;;;;;;;;;13.60;53.40;;;;;;5070632;28;20059;-70
2022/03/02 06:20:10;;;;;;;;;;;13.70;53.50;;;;;;5055826;28;19931;-70
2022/03/02 06:22:39;;;;;;;;;;;13.70;53.40;;;;;;5054685;28;20020;-69
2022/03/02 06:25:07;;;;;;;;;;;13.70;53.40;;;;;;5054481;28;19930;-70
2022/03/02 06:27:34;;;;;;;;;;;13.70;53.40;;;;;;5054703;28;19925;-70
2022/03/02 06:30:01;;;;;;;;;;;13.60;54.00;;;;;;5054868;28;19924;-69
2022/03/02 06:32:28;;;;;;;;;;;13.70;53.40;;;;;;5072456;28;20411;-70
2022/03/02 06:34:55;;;;;;;;;;;13.70;53.40;;;;;;5088326;28;19928;-70
2022/03/02 06:37:21;;;;;;;;;;;13.70;53.40;;;;;;5073021;28;19978;-70
2022/03/02 06:39:49;;;;;;;;;;;13.60;53.30;;;;;;5088173;28;19924;-70
2022/03/02 06:42:18;;;;;;;;;;;13.60;53.40;;;;;;5072400;28;19924;-70
2022/03/02 06:44:45;;;;;;;;;;;13.70;53.50;;;;;;5054528;28;20392;-70
2022/03/02 06:47:12;;;;;;;;;;;13.60;53.40;;;;;;5071769;28;19982;-70
2022/03/02 06:49:45;;;;;;;;;;;13.70;53.50;;;;;;5054666;28;19931;-69
2022/03/02 06:52:11;;;;;;;;;;;13.90;53.50;;;;;;5072228;28;19925;-69
2022/03/02 06:54:38;;;;;;;;;;;13.80;53.40;;;;;;5073368;28;20011;-69
2022/03/02 06:57:06;;;;;;;;;;;13.70;53.40;;;;;;5071790;28;20022;-68
2022/03/02 06:59:36;;;;;;;;;;;14.40;53.80;;;;;;5087827;28;19966;-69
2022/03/02 07:02:03;;;;;;;;;;;13.70;53.40;;;;;;5072146;28;20382;-69
2022/03/02 07:04:32;;;;;;;;;;;13.70;53.50;;;;;;5072396;28;20298;-68
2022/03/02 07:06:58;;;;;;;;;;;13.70;53.40;;;;;;5053512;28;19931;-69
2022/03/02 07:09:25;;;;;;;;;;;14.00;53.50;;;;;;5088953;28;19928;-69
2022/03/02 07:11:51;;;;;;;;;;;13.70;53.40;;;;;;5079691;28;19931;-69
2022/03/02 07:14:19;;;;;;;;;;;13.70;53.40;;;;;;5092315;28;19924;-69
2022/03/02 07:16:46;;;;;;;;;;;13.90;53.50;;;;;;5091865;28;19931;-69
2022/03/02 07:19:13;;;;;;;;;;;13.70;53.40;;;;;;5091985;28;19930;-69
2022/03/02 07:21:40;;;;;;;;;;;13.70;53.40;;;;;;5108227;28;19974;-68
2022/03/02 07:24:07;;;;;;;;;;;13.70;53.30;;;;;;5095258;28;19946;-69
2022/03/02 07:26:34;;;;;;;;;;;13.70;53.40;;;;;;5110012;28;20392;-69
2022/03/02 07:29:03;;;;;;;;;;;13.80;53.50;;;;;;5096105;28;19930;-69
2022/03/02 07:31:31;;;;;;;;;;;13.80;53.40;;;;;;5075659;28;19925;-69
2022/03/02 07:33:58;;;;;;;;;;;13.80;53.30;;;;;;5075815;28;19925;-69
2022/03/02 07:36:24;;;;;;;;;;;14.20;53.50;;;;;;5075409;28;19924;-69
2022/03/02 07:38:51;;;;;;;;;;;13.80;53.20;;;;;;5075695;28;19931;-69
2022/03/02 07:41:17;;;;;;;;;;;13.80;53.20;;;;;;5091585;28;19931;-69
2022/03/02 07:43:46;;;;;;;;;;;13.80;53.20;;;;;;5085480;28;19928;-67
2022/03/02 07:46:13;;;;;;;;;;;13.80;53.20;;;;;;5110459;28;19924;-72
2022/03/02 07:48:41;;;;;;;;;;;13.80;53.20;;;;;;5111960;28;19931;-71
2022/03/02 07:51:08;;;;;;;;;;;13.80;53.10;;;;;;5111890;28;20015;-71
2022/03/02 07:53:37;;;;;;;;;;;13.80;53.10;;;;;;5111432;28;19924;-72
2022/03/02 07:56:04;;;;;;;;;;;13.90;53.20;;;;;;5098371;28;20304;-71
2022/03/02 07:58:30;;;;;;;;;;;13.80;53.00;;;;;;5105654;28;19931;-71
2022/03/02 08:00:57;;;;;;;;;;;14.10;53.20;;;;;;5085635;28;19955;-72
2022/03/02 08:03:25;;;;;;;;;;;13.90;53.10;;;;;;5106136;28;19953;-71
2022/03/02 08:05:53;;;;;;;;;;;14.00;53.10;;;;;;5089377;28;19924;-72
2022/03/02 08:08:20;;;;;;;;;;;14.00;53.10;;;;;;5116153;28;20287;-71
2022/03/02 08:10:46;;;;;;;;;;;14.00;53.10;;;;;;5116135;28;20299;-71
2022/03/02 08:13:13;;;;;;;;;;;14.00;53.00;;;;;;5115621;28;19945;-71
2022/03/02 08:15:40;;;;;;;;;;;14.00;53.00;;;;;;5099943;28;20015;-71
2022/03/02 08:18:06;;;;;;;;;;;14.10;52.90;;;;;;5067007;28;19928;-71
2022/03/02 08:20:33;;;;;;;;;;;14.10;52.90;;;;;;5074763;28;20396;-71
2022/03/02 08:23:01;;;;;;;;;;;14.20;52.90;;;;;;5092380;28;19924;-71
2022/03/02 08:25:29;;;;;;;;;;;14.20;52.80;;;;;;5095164;28;20341;-71
2022/03/02 08:27:57;;;;;;;;;;;14.30;52.80;;;;;;5094947;28;20018;-72
2022/03/02 08:30:24;;;;;;;;;;;14.20;52.60;;;;;;5076800;28;19924;-71
2022/03/02 08:32:50;;;;;;;;;;;14.30;52.60;;;;;;5094774;28;20298;-68
2022/03/02 08:35:17;;;;;;;;;;;14.30;52.50;;;;;;5094419;28;19924;-69
2022/03/02 08:37:43;;;;;;;;;;;14.40;52.50;;;;;;5110479;28;19924;-71
2022/03/02 08:40:12;;;;;;;;;;;14.40;52.50;;;;;;5094995;28;19971;-71
2022/03/02 08:42:39;;;;;;;;;;;14.40;53.00;;;;;;5094197;28;19924;-71
2022/03/02 08:45:05;;;;;;;;;;;14.40;52.40;;;;;;5094615;28;19930;-71
2022/03/02 08:47:32;;;;;;;;;;;14.50;52.40;;;;;;5097797;28;19931;-71
2022/03/02 08:49:59;;;;;;;;;;;14.50;52.40;;;;;;5100686;28;20303;-72
2022/03/02 08:52:26;;;;;;;;;;;14.50;52.30;;;;;;5076394;28;20019;-71
2022/03/02 08:54:52;;;;;;;;;;;14.50;52.50;;;;;;5087189;28;19924;-71
2022/03/02 08:57:20;;;;;;;;;;;14.50;52.50;;;;;;5103464;28;20296;-71
2022/03/02 08:59:47;;;;;;;;;;;14.60;52.50;;;;;;5066832;28;19924;-73
2022/03/02 09:02:13;;;;;;;;;;;14.60;52.40;;;;;;5104435;28;19946;-71
2022/03/02 09:04:40;;;;;;;;;;;14.60;52.40;;;;;;5105338;28;19946;-70
2022/03/02 09:07:06;;;;;;;;;;;14.70;52.40;;;;;;5081816;28;20362;-70
2022/03/02 09:09:33;;;;;;;;;;;14.70;52.30;;;;;;5099978;28;19924;-72
2022/03/02 09:12:00;;;;;;;;;;;14.70;52.30;;;;;;5101734;28;19924;-70
2022/03/02 09:14:27;;;;;;;;;;;14.70;52.30;;;;;;5096355;28;20316;-71
2022/03/02 09:16:55;;;;;;;;;;;14.70;52.20;;;;;;5090491;28;19928;-70
2022/03/02 09:19:21;;;;;;;;;;;14.70;52.40;;;;;;5083866;28;19925;-72
2022/03/02 09:21:49;;;;;;;;;;;14.80;52.20;;;;;;5108807;28;19924;-71
2022/03/02 09:24:15;;;;;;;;;;;14.80;52.20;;;;;;5109487;28;20373;-72
2022/03/02 09:26:42;;;;;;;;;;;14.80;52.10;;;;;;5093112;28;20285;-71
2022/03/02 09:29:08;;;;;;;;;;;14.80;52.10;;;;;;5105879;28;20292;-71
2022/03/02 09:31:36;;;;;;;;;;;14.80;52.00;;;;;;5089614;28;20388;-73
2022/03/02 09:34:03;;;;;;;;;;;14.80;52.00;;;;;;5090278;28;20011;-72
2022/03/02 09:36:30;;;;;;;;;;;14.90;52.00;;;;;;5075520;28;19924;-72
2022/03/02 09:38:57;;;;;;;;;;;14.90;52.00;;;;;;5109800;28;19928;-73
2022/03/02 09:41:27;;;;;;;;;;;14.90;52.00;;;;;;5112518;28;20281;-72
2022/03/02 09:43:55;;;;;;;;;;;14.90;52.00;;;;;;5102861;28;19939;-72
2022/03/02 09:46:23;;;;;;;;;;;14.90;51.90;;;;;;5082599;28;19924;-72
2022/03/02 09:48:51;;;;;;;;;;;14.90;51.90;;;;;;5104278;28;20371;-72
2022/03/02 09:51:18;;;;;;;;;;;15.00;51.90;;;;;;5110150;28;19934;-73
2022/03/02 09:53:47;;;;;;;;;;;14.90;51.80;;;;;;5108476;28;19928;-72
2022/03/02 09:56:13;;;;;;;;;;;15.00;51.90;;;;;;5093093;28;20014;-72
2022/03/02 09:58:40;;;;;;;;;;;15.00;51.90;;;;;;5093367;28;19925;-71
2022/03/02 10:01:09;;;;;;;;;;;15.00;51.90;;;;;;5093204;28;19982;-72
2022/03/02 10:03:36;;;;;;;;;;;15.00;51.80;;;;;;5092059;28;19930;-72
2022/03/02 10:06:04;;;;;;;;;;;15.00;51.80;;;;;;5092551;28;20019;-73
2022/03/02 10:08:33;;;;;;;;;;;15.00;51.80;;;;;;5093465;28;19924;-71
2022/03/02 10:10:59;;;;;;;;;;;15.10;51.80;;;;;;5079902;28;20007;-71
2022/03/02 10:13:26;;;;;;;;;;;15.10;51.80;;;;;;5090027;28;19930;-71
2022/03/02 10:15:53;;;;;;;;;;;15.10;51.80;;;;;;5098764;28;20414;-72
2022/03/02 10:18:20;;;;;;;;;;;15.10;51.70;;;;;;5111039;28;19924;-71
2022/03/02 10:20:49;;;;;;;;;;;15.10;51.70;;;;;;5089646;28;19947;-71
2022/03/02 10:23:22;;;;;;;;;;;15.10;51.70;;;;;;5108736;28;20345;-71
2022/03/02 10:25:55;;;;;;;;;;;15.10;51.60;;;;;;5107077;28;19931;-71
2022/03/02 10:28:25;;;;;;;;;;;15.10;51.80;;;;;;5086502;28;19936;-72
2022/03/02 10:30:57;;;;;;;;;;;15.20;51.60;;;;;;5089323;28;19930;-72
2022/03/02 10:33:24;;;;;;;;;;;15.20;51.60;;;;;;5108643;28;20344;-72
2022/03/02 10:35:52;;;;;;;;;;;15.20;51.60;;;;;;5074647;28;20403;-70
2022/03/02 10:38:23;;;;;;;;;;;15.20;51.60;;;;;;5108844;28;19935;-72
2022/03/02 10:40:51;;;;;;;;;;;15.20;51.60;;;;;;5108827;28;19924;-70
2022/03/02 10:43:18;;;;;;;;;;;15.20;51.60;;;;;;5108505;28;19924;-71
2022/03/02 10:45:47;;;;;;;;;;;15.20;51.60;;;;;;5092712;28;19950;-70
2022/03/02 10:48:14;;;;;;;;;;;15.20;51.60;;;;;;5074461;28;19931;-70
2022/03/02 10:50:41;;;;;;;;;;;15.20;51.60;;;;;;5107413;28;19924;-69
2022/03/02 10:53:11;;;;;;;;;;;15.30;51.60;;;;;;5092765;28;19934;-70
2022/03/02 10:55:39;;;;;;;;;;;15.30;51.60;;;;;;5092243;28;19934;-70
2022/03/02 10:58:06;;;;;;;;;;;15.30;51.40;;;;;;5074486;28;19924;-69
2022/03/02 11:00:33;;;;;;;;;;;15.30;51.30;;;;;;5091703;28;20272;-71
2022/03/02 11:02:59;;;;;;;;;;;15.30;51.30;;;;;;5073999;28;19924;-70
2022/03/02 11:05:26;;;;;;;;;;;15.40;51.50;;;;;;5092221;28;19924;-73
2022/03/02 11:07:53;;;;;;;;;;;15.50;51.70;;;;;;5073843;28;20369;-71
2022/03/02 11:10:20;;;;;;;;;;;15.50;51.70;;;;;;5074297;28;19967;-72
2022/03/02 11:12:49;;;;;;;;;;;15.50;51.80;;;;;;5074466;28;20319;-71
2022/03/02 11:15:16;;;;;;;;;;;15.50;51.80;;;;;;5074093;28;19946;-70
2022/03/02 11:17:52;;;;;;;;;;;15.60;51.90;;;;;;5091617;28;19931;-71
2022/03/02 11:20:19;;;;;;;;;;;15.60;51.80;;;;;;5074446;28;19935;-72
2022/03/02 11:22:51;;;;;;;;;;;15.70;51.70;;;;;;5074380;28;19924;-71
2022/03/02 11:25:17;;;;;;;;;;;15.70;51.80;;;;;;5074114;28;20281;-72
2022/03/02 11:27:45;;;;;;;;;;;15.80;51.80;;;;;;5073194;28;19931;-73
2022/03/02 11:30:15;;;;;;;;;;;15.80;51.80;;;;;;5057263;28;19978;-72
2022/03/02 11:32:42;;;;;;;;;;;15.80;51.70;;;;;;5073694;28;20308;-71
2022/03/02 11:35:09;;;;;;;;;;;15.90;51.70;;;;;;5091963;28;19928;-70
2022/03/02 11:37:36;;;;;;;;;;;15.90;51.70;;;;;;5073862;28;20011;-71
2022/03/02 11:40:04;;;;;;;;;;;15.90;51.70;;;;;;5074098;28;19930;-70
2022/03/02 11:42:31;;;;;;;;;;;15.90;51.70;;;;;;5073674;28;20010;-72
2022/03/02 11:44:59;;;;;;;;;;;18.70;53.20;;;;;;5074022;28;20423;-71
2022/03/02 11:47:32;;;;;;;;;;;16.00;51.70;;;;;;5073549;28;19924;-71
2022/03/02 11:49:59;;;;;;;;;;;15.90;51.50;;;;;;5073943;28;19928;-71
2022/03/02 11:52:26;;;;;;;;;;;16.00;51.60;;;;;;5092330;28;19924;-73
2022/03/02 11:54:53;;;;;;;;;;;16.00;51.60;;;;;;5091488;28;20381;-71
2022/03/02 11:57:20;;;;;;;;;;;16.00;51.50;;;;;;5105035;28;19954;-72
2022/03/02 11:59:47;;;;;;;;;;;16.00;51.60;;;;;;5080910;28;19930;-71
2022/03/02 12:02:15;;;;;;;;;;;16.00;51.50;;;;;;5079270;28;19923;-73
2022/03/02 12:04:43;;;;;;;;;;;16.00;51.50;;;;;;5100361;28;20312;-72
2022/03/02 12:07:09;;;;;;;;;;;16.00;51.50;;;;;;5083475;28;19928;-71
2022/03/02 12:09:36;;;;;;;;;;;16.00;51.50;;;;;;5087043;28;19932;-71
2022/03/02 12:12:06;;;;;;;;;;;16.00;51.50;;;;;;5105930;28;19927;-71
2022/03/02 12:14:38;;;;;;;;;;;16.00;51.50;;;;;;5085293;28;19924;-71
2022/03/02 12:17:06;;;;;;;;;;;16.00;51.50;;;;;;5101076;28;19930;-71
2022/03/02 12:19:32;;;;;;;;;;;16.00;51.40;;;;;;5088073;28;19924;-71
2022/03/02 12:22:02;;;;;;;;;;;16.00;51.40;;;;;;5088061;28;19927;-71
2022/03/02 12:24:29;;;;;;;;;;;16.00;51.50;;;;;;5097829;28;20312;-70
2022/03/02 12:27:03;;;;;;;;;;;15.90;51.40;;;;;;5076959;28;19973;-71
2022/03/02 12:29:30;;;;;;;;;;;16.00;51.50;;;;;;5077021;28;19930;-68
2022/03/02 12:32:06;;;;;;;;;;;15.90;51.90;;;;;;5094519;28;20528;-70
2022/03/02 12:34:33;;;;;;;;;;;16.00;51.50;;;;;;5094067;28;20291;-68
2022/03/02 12:37:02;;;;;;;;;;;15.90;52.10;;;;;;5075616;28;19924;-72
2022/03/02 12:39:29;;;;;;;;;;;15.90;51.60;;;;;;5076788;28;19977;-69
2022/03/02 12:41:55;;;;;;;;;;;16.00;51.70;;;;;;5076739;28;19931;-69
2022/03/02 12:44:22;;;;;;;;;;;16.00;51.80;;;;;;5094868;28;19931;-68
2022/03/02 12:46:48;;;;;;;;;;;16.00;51.80;;;;;;5076635;28;19934;-68
2022/03/02 12:49:15;;;;;;;;;;;16.00;51.80;;;;;;5094627;28;19931;-69
2022/03/02 12:51:46;;;;;;;;;;;16.00;51.80;;;;;;5094524;28;19931;-69
2022/03/02 12:54:14;;;;;;;;;;;16.00;51.80;;;;;;5110849;28;19927;-68
2022/03/02 12:56:40;;;;;;;;;;;16.00;51.80;;;;;;5076427;28;20300;-68
2022/03/02 12:59:07;;;;;;;;;;;16.00;51.80;;;;;;5076564;28;20400;-72
2022/03/02 13:01:34;;;;;;;;;;;16.00;51.70;;;;;;5081872;28;20288;-70
2022/03/02 13:04:01;;;;;;;;;;;16.00;51.70;;;;;;5102425;28;19931;-72
2022/03/02 13:06:29;;;;;;;;;;;16.00;51.70;;;;;;5085679;28;19930;-70
2022/03/02 13:08:58;;;;;;;;;;;16.00;51.70;;;;;;5086755;28;19924;-70
2022/03/02 13:11:27;;;;;;;;;;;16.10;51.70;;;;;;5086128;28;19932;-70
2022/03/02 13:13:54;;;;;;;;;;;16.10;51.80;;;;;;5091007;28;19924;-70
2022/03/02 13:16:21;;;;;;;;;;;16.10;51.70;;;;;;5084900;28;20295;-70
2022/03/02 13:18:48;;;;;;;;;;;16.20;51.80;;;;;;5087872;28;20373;-70
2022/03/02 13:21:15;;;;;;;;;;;16.10;51.70;;;;;;5100953;28;19966;-70
2022/03/02 13:23:57;;;;;;;;;;;16.10;51.80;;;;;;5080764;28;20011;-71
2022/03/02 13:26:23;;;;;;;;;;;16.10;51.80;;;;;;5109418;28;19931;-73
2022/03/02 13:29:14;;;;;;;;;;;16.20;51.80;;;;;;5084418;28;19928;-70
2022/03/02 13:31:52;;;;;;;;;;;16.20;51.80;;;;;;5077139;28;19932;-70
2022/03/02 13:34:19;;;;;;;;;;;16.20;51.80;;;;;;5093193;28;19923;-70
2022/03/02 13:36:47;;;;;;;;;;;16.20;51.80;;;;;;5109573;28;19930;-73
2022/03/02 13:39:14;;;;;;;;;;;16.20;51.80;;;;;;5075494;28;19924;-70
2022/03/02 13:41:41;;;;;;;;;;;16.20;51.80;;;;;;5075853;28;20374;-70
2022/03/02 13:44:35;;;;;;;;;;;16.20;51.80;;;;;;5075322;28;19971;-73
2022/03/02 13:47:17;;;;;;;;;;;16.20;51.80;;;;;;5051487;28;20002;-71
2022/03/02 13:50:00;;;;;;;;;;;16.20;51.80;;;;;;5075743;28;19924;-70
2022/03/02 13:52:41;;;;;;;;;;;16.30;51.80;;;;;;5075596;28;20288;-71
2022/03/02 13:55:23;;;;;;;;;;;16.30;51.80;;;;;;5076160;28;20398;-70
2022/03/02 13:57:50;;;;;;;;;;;16.30;51.80;;;;;;5093259;28;19975;-70
2022/03/02 14:00:26;;;;;;;;;;;16.30;51.80;;;;;;5075528;28;20328;-70
2022/03/02 14:02:56;;;;;;;;;;;16.30;51.80;;;;;;5075549;28;19930;-71
2022/03/02 14:05:23;;;;;;;;;;;16.30;51.80;;;;;;5075255;28;19977;-74
2022/03/02 14:07:50;;;;;;;;;;;16.30;51.80;;;;;;5074765;28;19951;-70
2022/03/02 14:10:17;;;;;;;;;;;16.30;51.80;;;;;;5075245;28;19924;-73
2022/03/02 14:12:48;;;;;;;;;;;16.30;51.80;;;;;;5074960;28;19931;-70
2022/03/02 14:15:14;;;;;;;;;;;16.40;51.80;;;;;;5074990;28;19931;-70
2022/03/02 14:17:41;;;;;;;;;;;16.40;51.80;;;;;;5074911;28;19946;-71
2022/03/02 14:20:09;;;;;;;;;;;16.40;51.80;;;;;;5075114;28;19924;-70